Time;durP1;ratioP1;P1;durP2;ratioP2;P2;SDS_P1;SDS_P2;PMS_P1;PMS_P2;Temp;Humidity;BMP_temperature;BMP_pressure;BME280_temperature;BME280_humidity;BME280_pressure;Samples;Min_cycle;Max_cycle;Signal;HPM_P1;HPM_P2
2023/06/26 00:00:48;;;;;;;1999.90;999.90;;;21.10;99.90;;;;;;4970167;28;20788;-72
2023/06/26 00:03:15;;;;;;;1999.90;999.90;;;21.20;99.90;;;;;;4969907;28;20447;-72
2023/06/26 00:05:42;;;;;;;1999.90;999.90;;;21.20;99.90;;;;;;4969059;28;20448;-73
2023/06/26 00:08:09;;;;;;;1999.90;999.90;;;21.30;99.90;;;;;;4970134;28;20538;-72
2023/06/26 00:10:36;;;;;;;1999.90;999.90;;;21.50;99.90;;;;;;4970142;28;20432;-72
2023/06/26 00:13:03;;;;;;;1999.90;999.90;;;21.50;99.90;;;;;;4969280;28;20432;-73
2023/06/26 00:15:31;;;;;;;1999.90;999.90;;;21.50;99.90;;;;;;4969527;28;20440;-73
2023/06/26 00:17:58;;;;;;;1999.90;999.90;;;21.60;99.90;;;;;;4969034;28;20428;-71
2023/06/26 00:20:24;;;;;;;1999.90;999.90;;;21.60;99.90;;;;;;4968084;28;20478;-73
2023/06/26 00:22:53;;;;;;;1999.90;999.90;;;21.50;99.90;;;;;;4968843;28;20470;-72
2023/06/26 00:25:20;;;;;;;1999.90;999.90;;;21.40;99.90;;;;;;4969388;28;20423;-72
2023/06/26 00:27:46;;;;;;;1999.90;999.90;;;21.50;99.90;;;;;;4969407;28;20423;-72
2023/06/26 00:30:14;;;;;;;1999.90;999.90;;;21.50;99.90;;;;;;4969684;28;20429;-72
2023/06/26 00:32:41;;;;;;;1999.90;999.90;;;21.60;99.90;;;;;;4969302;28;20475;-72
2023/06/26 00:35:08;;;;;;;1999.90;999.90;;;21.60;99.90;;;;;;4969607;28;20424;-72
2023/06/26 00:37:35;;;;;;;1999.90;999.90;;;21.50;99.90;;;;;;4970937;28;20479;-73
2023/06/26 00:40:01;;;;;;;1999.90;999.90;;;21.60;99.90;;;;;;4970692;28;20930;-73
2023/06/26 00:42:28;;;;;;;1999.90;999.90;;;21.50;99.90;;;;;;4970813;28;20490;-73
2023/06/26 00:44:55;;;;;;;1999.90;999.90;;;21.30;99.90;;;;;;4971411;28;20460;-72
2023/06/26 00:47:23;;;;;;;1999.90;999.90;;;21.10;99.90;;;;;;4965188;28;20863;-72
2023/06/26 00:49:50;;;;;;;1999.90;999.90;;;21.00;99.90;;;;;;4973508;28;20424;-73
2023/06/26 00:52:17;;;;;;;1999.90;999.90;;;20.80;99.90;;;;;;4972934;28;20432;-72
2023/06/26 00:54:44;;;;;;;1999.90;999.90;;;20.70;99.90;;;;;;4974139;28;20795;-73
2023/06/26 00:57:11;;;;;;;1999.90;999.90;;;20.60;99.90;;;;;;4974168;28;20479;-72
2023/06/26 00:59:37;;;;;;;1999.90;999.90;;;20.50;99.90;;;;;;4973870;28;20973;-72
2023/06/26 01:02:04;;;;;;;1999.90;999.90;;;20.50;99.90;;;;;;4971874;28;20459;-73
2023/06/26 01:04:33;;;;;;;1999.90;999.90;;;20.40;99.90;;;;;;4973864;28;20424;-72
2023/06/26 01:07:00;;;;;;;1999.90;999.90;;;20.70;99.90;;;;;;4973483;28;20812;-72
2023/06/26 01:09:27;;;;;;;1999.90;999.90;;;20.80;99.90;;;;;;4972090;28;20471;-73
2023/06/26 01:11:54;;;;;;;1999.90;999.90;;;20.80;99.90;;;;;;4972842;28;20420;-72
2023/06/26 01:14:21;;;;;;;1999.90;999.90;;;20.70;99.90;;;;;;4973632;28;20420;-72
2023/06/26 01:16:50;;;;;;;1999.90;999.90;;;20.60;99.90;;;;;;4972346;28;20498;-72
2023/06/26 01:19:24;;;;;;;1999.90;999.90;;;20.60;99.90;;;;;;4971792;28;21059;-72
2023/06/26 01:21:58;;;;;;;1999.90;999.90;;;20.60;99.90;;;;;;4972694;28;20443;-72
2023/06/26 01:24:28;;;;;;;1999.90;999.90;;;20.60;99.90;;;;;;4966151;28;20475;-73
2023/06/26 01:26:56;;;;;;;1999.90;999.90;;;20.70;99.90;;;;;;4973628;28;20662;-73
2023/06/26 01:29:24;;;;;;;1999.90;999.90;;;20.80;99.90;;;;;;4973385;28;20424;-71
2023/06/26 01:31:51;;;;;;;1999.90;999.90;;;20.80;99.90;;;;;;4972251;28;20428;-72
2023/06/26 01:34:18;;;;;;;1999.90;999.90;;;20.90;99.90;;;;;;4971856;28;20850;-73
2023/06/26 01:36:46;;;;;;;1999.90;999.90;;;21.00;99.90;;;;;;4973361;28;20487;-73
2023/06/26 01:39:16;;;;;;;1999.90;999.90;;;21.10;99.90;;;;;;4973404;28;20447;-73
2023/06/26 01:41:42;;;;;;;1999.90;999.90;;;21.20;99.90;;;;;;4972910;28;20444;-74
2023/06/26 01:44:23;;;;;;;1999.90;999.90;;;21.30;99.90;;;;;;4972855;28;20440;-70
2023/06/26 01:47:01;;;;;;;1999.90;999.90;;;21.30;99.90;;;;;;4973237;28;20482;-73
2023/06/26 01:49:37;;;;;;;1999.90;999.90;;;21.30;99.90;;;;;;4971814;28;20464;-72
2023/06/26 01:52:09;;;;;;;1999.90;999.90;;;21.20;99.90;;;;;;4971711;28;20486;-73
2023/06/26 01:54:42;;;;;;;1999.90;999.90;;;21.20;99.90;;;;;;4972689;28;20424;-73
2023/06/26 01:57:10;;;;;;;1999.90;999.90;;;21.10;99.90;;;;;;4972691;28;20423;-73
2023/06/26 01:59:41;;;;;;;1999.90;999.90;;;21.30;99.90;;;;;;4973041;28;20475;-72
2023/06/26 02:02:08;;;;;;;1999.90;999.90;;;21.30;99.90;;;;;;4972087;28;20420;-74
2023/06/26 02:04:35;;;;;;;1999.90;999.90;;;21.30;99.90;;;;;;4971491;28;20538;-72
2023/06/26 02:07:02;;;;;;;1999.90;999.90;;;21.30;99.90;;;;;;4972671;28;20432;-74
2023/06/26 02:09:28;;;;;;;1999.90;999.90;;;21.30;99.90;;;;;;4971719;28;20428;-72
2023/06/26 02:11:55;;;;;;;1999.90;999.90;;;21.10;99.90;;;;;;4970950;28;20502;-72
2023/06/26 02:14:22;;;;;;;1999.90;999.90;;;20.90;99.90;;;;;;4971991;28;20862;-71
2023/06/26 02:16:50;;;;;;;1999.90;999.90;;;20.60;99.90;;;;;;4972245;28;20930;-72
2023/06/26 02:19:21;;;;;;;1999.90;999.90;;;20.50;99.90;;;;;;4972443;28;20491;-73
2023/06/26 02:21:48;;;;;;;1999.90;999.90;;;20.40;99.90;;;;;;4971319;28;20439;-70
2023/06/26 02:24:15;;;;;;;1999.90;999.90;;;20.30;99.90;;;;;;4970239;28;20455;-73
2023/06/26 02:26:41;;;;;;;1999.90;999.90;;;20.20;99.90;;;;;;4970372;28;20443;-72
2023/06/26 02:29:08;;;;;;;1999.90;999.90;;;20.20;99.90;;;;;;4971696;28;20499;-72
2023/06/26 02:31:35;;;;;;;1999.90;999.90;;;20.10;99.90;;;;;;4969490;28;20494;-72
2023/06/26 02:34:02;;;;;;;1999.90;999.90;;;20.10;99.90;;;;;;4970522;28;20498;-73
2023/06/26 02:36:29;;;;;;;1999.90;999.90;;;19.90;99.90;;;;;;4971207;28;20436;-72
2023/06/26 02:38:56;;;;;;;1999.90;999.90;;;19.90;99.90;;;;;;4971327;28;20914;-73
2023/06/26 02:41:22;;;;;;;1999.90;999.90;;;19.80;99.90;;;;;;4969995;28;20522;-72
2023/06/26 02:43:49;;;;;;;1999.90;999.90;;;19.70;99.90;;;;;;4970504;28;20854;-72
2023/06/26 02:46:16;;;;;;;1999.90;999.90;;;19.80;99.90;;;;;;4970818;28;20440;-72
2023/06/26 02:48:42;;;;;;;1999.90;999.90;;;19.90;99.90;;;;;;4971658;28;20436;-74
2023/06/26 02:51:10;;;;;;;1999.90;999.90;;;20.00;99.90;;;;;;4970009;28;20443;-72
2023/06/26 02:53:37;;;;;;;1999.90;999.90;;;19.90;99.90;;;;;;4970710;28;20436;-73
2023/06/26 02:56:04;;;;;;;1999.90;999.90;;;19.90;99.90;;;;;;4969482;28;20918;-73
2023/06/26 02:58:31;;;;;;;1999.90;999.90;;;19.80;99.90;;;;;;4971289;28;20510;-73
2023/06/26 03:00:57;;;;;;;1999.90;999.90;;;19.30;99.90;;;;;;4970546;28;20444;-73
2023/06/26 03:03:24;;;;;;;1999.90;999.90;;;19.10;99.90;;;;;;4968536;28;20467;-72
2023/06/26 03:05:50;;;;;;;1999.90;999.90;;;19.30;99.90;;;;;;4970367;28;20440;-74
2023/06/26 03:08:19;;;;;;;1999.90;999.90;;;19.20;99.90;;;;;;4971694;28;20443;-70
2023/06/26 03:10:45;;;;;;;1999.90;999.90;;;19.20;99.90;;;;;;4969360;28;20466;-68
2023/06/26 03:13:12;;;;;;;1999.90;999.90;;;19.20;99.90;;;;;;4970019;28;20436;-71
2023/06/26 03:15:39;;;;;;;1999.90;999.90;;;19.20;99.90;;;;;;4971169;28;20440;-73
2023/06/26 03:18:05;;;;;;;1999.90;999.90;;;19.20;99.90;;;;;;4970828;28;20491;-73
2023/06/26 03:20:32;;;;;;;1999.90;999.90;;;19.50;99.90;;;;;;4971508;28;20444;-72
2023/06/26 03:22:59;;;;;;;1999.90;999.90;;;19.20;99.90;;;;;;4970034;28;20486;-73
2023/06/26 03:25:27;;;;;;;1999.90;999.90;;;19.30;99.90;;;;;;4969929;28;20507;-71
2023/06/26 03:27:53;;;;;;;1999.90;999.90;;;19.30;99.90;;;;;;4971449;28;20447;-71
2023/06/26 03:30:20;;;;;;;1999.90;999.90;;;19.40;99.90;;;;;;4967597;28;21472;-72
2023/06/26 03:32:47;;;;;;;1999.90;999.90;;;19.20;99.90;;;;;;4969753;28;20470;-73
2023/06/26 03:35:14;;;;;;;1999.90;999.90;;;19.30;99.90;;;;;;4970382;28;20503;-73
2023/06/26 03:37:41;;;;;;;1999.90;999.90;;;19.40;99.90;;;;;;4971339;28;20884;-73
2023/06/26 03:40:09;;;;;;;1999.90;999.90;;;19.50;99.90;;;;;;4969905;28;20436;-75
2023/06/26 03:42:37;;;;;;;1999.90;999.90;;;19.60;99.90;;;;;;4969081;28;20444;-75
2023/06/26 03:45:04;;;;;;;1999.90;999.90;;;19.40;99.90;;;;;;4969727;28;20440;-71
2023/06/26 03:47:30;;;;;;;1999.90;999.90;;;19.40;99.90;;;;;;4970911;28;20436;-70
2023/06/26 03:49:57;;;;;;;1999.90;999.90;;;19.60;99.90;;;;;;4971316;28;20436;-71
2023/06/26 03:52:24;;;;;;;1999.90;999.90;;;19.60;99.90;;;;;;4970252;28;20510;-72
2023/06/26 03:54:50;;;;;;;1999.90;999.90;;;19.70;99.90;;;;;;4969730;28;20467;-72
2023/06/26 03:57:17;;;;;;;1999.90;999.90;;;19.60;99.90;;;;;;4969574;28;20440;-75
2023/06/26 03:59:45;;;;;;;1999.90;999.90;;;19.40;99.90;;;;;;4970403;28;20475;-74
2023/06/26 04:02:12;;;;;;;1999.90;999.90;;;19.50;99.90;;;;;;4969910;28;20859;-70
2023/06/26 04:04:39;;;;;;;1999.90;999.90;;;19.70;99.90;;;;;;4970698;28;20435;-68
2023/06/26 04:07:05;;;;;;;1999.90;999.90;;;19.80;99.90;;;;;;4969973;28;20441;-74
2023/06/26 04:09:32;;;;;;;1999.90;999.90;;;19.60;99.90;;;;;;4970503;28;20439;-74
2023/06/26 04:11:59;;;;;;;1999.90;999.90;;;19.70;99.90;;;;;;4968839;28;20436;-73
2023/06/26 04:14:25;;;;;;;1999.90;999.90;;;19.70;99.90;;;;;;4970175;28;20452;-75
2023/06/26 04:16:53;;;;;;;1999.90;999.90;;;20.00;99.90;;;;;;4969583;28;20514;-70
2023/06/26 04:19:20;;;;;;;1999.90;999.90;;;20.20;99.90;;;;;;4970710;28;20523;-71
2023/06/26 04:21:47;;;;;;;1999.90;999.90;;;20.00;99.90;;;;;;4973096;28;20495;-70
2023/06/26 04:24:14;;;;;;;1999.90;999.90;;;20.10;99.90;;;;;;4966795;28;20435;-69
2023/06/26 04:26:41;;;;;;;1999.90;999.90;;;20.40;99.90;;;;;;4973103;28;20435;-71
2023/06/26 04:29:07;;;;;;;1999.90;999.90;;;20.40;99.90;;;;;;4972141;28;20514;-71
2023/06/26 04:31:34;;;;;;;1999.90;999.90;;;20.70;99.90;;;;;;4972661;28;20922;-71
2023/06/26 04:34:02;;;;;;;1999.90;999.90;;;20.70;99.90;;;;;;4973153;28;20862;-71
2023/06/26 04:36:29;;;;;;;1999.90;999.90;;;21.20;99.90;;;;;;4973703;28;21609;-73
2023/06/26 04:38:56;;;;;;;1999.90;999.90;;;22.00;99.90;;;;;;4973935;28;20445;-71
2023/06/26 04:41:22;;;;;;;1999.90;999.90;;;22.40;99.90;;;;;;4973196;28;20439;-68
2023/06/26 04:43:49;;;;;;;1999.90;999.90;;;23.10;99.90;;;;;;4971888;28;20490;-72
2023/06/26 04:46:16;;;;;;;1999.90;999.90;;;23.00;99.90;;;;;;4973381;28;20471;-70
2023/06/26 04:48:44;;;;;;;1999.90;999.90;;;23.40;99.90;;;;;;4973490;28;20498;-71
2023/06/26 04:51:12;;;;;;;1999.90;999.90;;;23.80;99.90;;;;;;4973234;28;20494;-72
2023/06/26 04:53:39;;;;;;;1999.90;999.90;;;24.10;99.90;;;;;;4973655;28;20416;-72
2023/06/26 04:56:05;;;;;;;1999.90;999.90;;;23.80;99.90;;;;;;4974140;28;20428;-72
2023/06/26 04:58:32;;;;;;;1999.90;999.90;;;23.60;99.90;;;;;;4973060;28;20444;-72
2023/06/26 05:00:59;;;;;;;1999.90;999.90;;;23.90;99.90;;;;;;4973333;28;20490;-72
2023/06/26 05:03:26;;;;;;;1999.90;999.90;;;23.80;99.90;;;;;;4973123;28;20436;-72
2023/06/26 05:05:52;;;;;;;1999.90;999.90;;;24.40;99.90;;;;;;4973775;28;20499;-72
2023/06/26 05:08:23;;;;;;;1999.90;999.90;;;24.30;99.90;;;;;;4973482;28;20423;-71
2023/06/26 05:10:50;;;;;;;1999.90;999.90;;;24.30;99.90;;;;;;4973469;28;20435;-71
2023/06/26 05:13:19;;;;;;;1999.90;999.90;;;24.50;99.90;;;;;;4972462;28;20440;-72
2023/06/26 05:15:46;;;;;;;1999.90;999.90;;;24.70;99.90;;;;;;4973289;28;20930;-72
2023/06/26 05:18:13;;;;;;;1999.90;999.90;;;24.70;99.90;;;;;;4973586;28;20423;-71
2023/06/26 05:20:40;;;;;;;1999.90;999.90;;;24.80;99.90;;;;;;4973596;28;20428;-72
2023/06/26 05:23:07;;;;;;;1999.90;999.90;;;24.70;99.90;;;;;;4972460;28;20430;-71
2023/06/26 05:25:36;;;;;;;1999.90;999.90;;;24.80;99.90;;;;;;4973648;28;20919;-72
2023/06/26 05:28:05;;;;;;;1999.90;999.90;;;24.90;99.90;;;;;;4972329;28;20498;-72
2023/06/26 05:30:34;;;;;;;1999.90;999.90;;;25.00;99.90;;;;;;4973469;28;20965;-72
2023/06/26 05:33:01;;;;;;;1999.90;999.90;;;25.00;99.90;;;;;;4971503;28;20442;-72
2023/06/26 05:35:29;;;;;;;1999.90;999.90;;;25.10;99.90;;;;;;4973058;28;20459;-72
2023/06/26 05:37:57;;;;;;;1999.90;999.90;;;25.40;99.90;;;;;;4972883;28;20982;-72
2023/06/26 05:40:24;;;;;;;1999.90;999.90;;;25.40;99.90;;;;;;4968922;28;20447;-72
2023/06/26 05:42:53;;;;;;;1999.90;999.90;;;25.20;99.90;;;;;;4968936;28;20935;-71
2023/06/26 05:45:19;;;;;;;1999.90;999.90;;;25.30;99.90;;;;;;4971140;28;20436;-70
2023/06/26 05:47:46;;;;;;;1999.90;999.90;;;25.90;99.90;;;;;;4971027;28;20452;-68
2023/06/26 05:50:14;;;;;;;1999.90;999.90;;;26.10;99.90;;;;;;4973094;28;20486;-69
2023/06/26 05:52:42;;;;;;;1999.90;999.90;;;26.40;99.90;;;;;;4972637;28;20419;-69
2023/06/26 05:55:09;;;;;;;1999.90;999.90;;;26.50;99.90;;;;;;4972949;28;20428;-69
2023/06/26 05:57:38;;;;;;;1999.90;999.90;;;26.70;99.90;;;;;;4972956;28;20424;-68
2023/06/26 06:00:10;;;;;;;1999.90;999.90;;;26.70;99.90;;;;;;4966281;28;20919;-69
2023/06/26 06:02:37;;;;;;;1999.90;999.90;;;27.00;99.90;;;;;;4967332;28;20512;-71
2023/06/26 06:05:04;;;;;;;1999.90;999.90;;;26.90;99.90;;;;;;4969486;28;20440;-70
2023/06/26 06:07:31;;;;;;;1999.90;999.90;;;26.70;99.90;;;;;;4971079;28;20436;-70
2023/06/26 06:09:58;;;;;;;1999.90;999.90;;;26.90;99.90;;;;;;4969786;28;20500;-70
2023/06/26 06:12:24;;;;;;;1999.90;999.90;;;27.10;99.90;;;;;;4970461;28;20442;-71
2023/06/26 06:14:52;;;;;;;1999.90;999.90;;;27.00;99.90;;;;;;4969551;28;20482;-69
2023/06/26 06:17:20;;;;;;;1999.90;999.90;;;27.00;99.90;;;;;;4968560;28;20454;-70
2023/06/26 06:19:46;;;;;;;1999.90;999.90;;;27.10;99.90;;;;;;4971013;28;20491;-69
2023/06/26 06:22:13;;;;;;;1999.90;999.90;;;27.20;99.90;;;;;;4970301;28;20938;-70
2023/06/26 06:24:40;;;;;;;1999.90;999.90;;;27.40;99.90;;;;;;4970023;28;20937;-70
2023/06/26 06:27:06;;;;;;;1999.90;999.90;;;27.30;99.90;;;;;;4970695;28;20819;-69
2023/06/26 06:29:33;;;;;;;1999.90;999.90;;;27.60;99.90;;;;;;4969970;28;20720;-71
2023/06/26 06:32:00;;;;;;;1999.90;999.90;;;28.20;99.90;;;;;;4968644;28;20446;-70
2023/06/26 06:34:28;;;;;;;1999.90;999.90;;;28.70;99.90;;;;;;4968293;28;20450;-68
2023/06/26 06:36:54;;;;;;;1999.90;999.90;;;28.70;99.90;;;;;;4971010;28;20868;-70
2023/06/26 06:39:21;;;;;;;1999.90;999.90;;;28.70;99.90;;;;;;4968976;28;20996;-69
2023/06/26 06:41:47;;;;;;;1999.90;999.90;;;28.80;96.60;;;;;;4965288;28;20440;-71
2023/06/26 06:44:14;;;;;;;1999.90;999.90;;;29.40;96.30;;;;;;4968111;28;20502;-72
2023/06/26 06:46:41;;;;;;;1999.90;999.90;;;29.90;95.50;;;;;;4968971;28;20553;-71
2023/06/26 06:49:09;;;;;;;1999.90;999.90;;;29.90;95.80;;;;;;4969958;28;20463;-71
2023/06/26 06:51:36;;;;;;;1999.90;999.90;;;30.10;97.00;;;;;;4969591;28;20444;-71
2023/06/26 06:54:03;;;;;;;1999.90;999.90;;;30.40;94.40;;;;;;4970344;28;20835;-70
2023/06/26 06:56:30;;;;;;;1999.90;999.90;;;30.60;97.90;;;;;;4970305;28;20444;-72
2023/06/26 06:58:57;;;;;;;1999.90;999.90;;;30.60;98.90;;;;;;4969923;28;20444;-71
2023/06/26 07:01:23;;;;;;;1999.90;999.90;;;30.60;98.00;;;;;;4966918;28;20494;-72
2023/06/26 07:03:50;;;;;;;1999.90;999.90;;;30.80;97.20;;;;;;4969463;28;20440;-71
2023/06/26 07:06:16;;;;;;;1999.90;999.90;;;30.40;95.20;;;;;;4963820;28;20870;-71
2023/06/26 07:08:44;;;;;;;1999.90;999.90;;;30.50;96.50;;;;;;4968337;28;20927;-70
2023/06/26 07:11:11;;;;;;;1999.90;999.90;;;30.00;96.10;;;;;;4969084;28;20518;-71
2023/06/26 07:13:38;;;;;;;1999.90;999.90;;;30.20;93.80;;;;;;4967325;28;20479;-72
2023/06/26 07:16:05;;;;;;;1999.90;999.90;;;30.20;94.70;;;;;;4969360;28;20439;-71
2023/06/26 07:18:31;;;;;;;1999.90;999.90;;;30.60;93.10;;;;;;4971448;28;20420;-70
2023/06/26 07:20:58;;;;;;;1999.90;999.90;;;31.00;92.20;;;;;;4969918;28;20455;-72
2023/06/26 07:23:25;;;;;;;1999.90;999.90;;;31.50;91.40;;;;;;4969587;28;20424;-71
2023/06/26 07:25:53;;;;;;;1999.90;999.90;;;31.50;91.00;;;;;;4971638;28;20439;-70
2023/06/26 07:28:19;;;;;;;1999.90;999.90;;;31.30;90.10;;;;;;4971071;28;20410;-72
2023/06/26 07:30:46;;;;;;;1999.90;999.90;;;31.10;91.50;;;;;;4971346;28;20420;-68
2023/06/26 07:33:13;;;;;;;1999.90;999.90;;;30.90;92.10;;;;;;4970925;28;21079;-71
2023/06/26 07:35:39;;;;;;;1999.90;999.90;;;30.60;90.60;;;;;;4968505;28;20444;-72
2023/06/26 07:38:06;;;;;;;1999.90;999.90;;;30.50;90.00;;;;;;4969808;28;20447;-71
2023/06/26 07:40:33;;;;;;;1999.90;999.90;;;30.80;90.90;;;;;;4968302;28;20442;-69
2023/06/26 07:43:00;;;;;;;1999.90;999.90;;;30.70;90.50;;;;;;4968113;28;20426;-71
2023/06/26 07:45:27;;;;;;;1999.90;999.90;;;30.80;90.00;;;;;;4968412;28;20788;-71
2023/06/26 07:47:54;;;;;;;1999.90;999.90;;;30.40;90.90;;;;;;4967352;28;20444;-72
2023/06/26 07:50:22;;;;;;;1999.90;999.90;;;30.50;89.70;;;;;;4966164;28;20444;-73
2023/06/26 07:52:49;;;;;;;1999.90;999.90;;;30.50;88.50;;;;;;4961936;28;20446;-72
2023/06/26 07:55:16;;;;;;;1999.90;999.90;;;30.60;88.50;;;;;;4969780;28;20811;-70
2023/06/26 07:57:43;;;;;;;1999.90;999.90;;;30.50;88.50;;;;;;4973696;28;20444;-69
2023/06/26 08:00:12;;;;;;;1999.90;999.90;;;30.60;86.40;;;;;;4973038;28;20926;-71
2023/06/26 08:02:38;;;;;;;1999.90;999.90;;;30.80;85.60;;;;;;4972029;28;20444;-71
2023/06/26 08:05:06;;;;;;;1999.90;999.90;;;30.20;84.70;;;;;;4972714;28;20432;-71
2023/06/26 08:07:32;;;;;;;1999.90;999.90;;;29.80;86.10;;;;;;4974112;28;20440;-71
2023/06/26 08:09:59;;;;;;;1999.90;999.90;;;29.50;87.00;;;;;;4975259;28;20420;-70
2023/06/26 08:12:26;;;;;;;1999.90;999.90;;;29.30;87.40;;;;;;4974444;28;20483;-68
2023/06/26 08:14:52;;;;;;;1999.90;999.90;;;29.50;87.40;;;;;;4975217;28;20474;-71
2023/06/26 08:17:20;;;;;;;1999.90;999.90;;;29.90;88.10;;;;;;4975022;28;20474;-71
2023/06/26 08:19:47;;;;;;;1999.90;999.90;;;29.50;88.60;;;;;;4969822;28;20942;-71
2023/06/26 08:22:14;;;;;;;1999.90;999.90;;;29.30;88.60;;;;;;4971436;28;20439;-71
2023/06/26 08:24:41;;;;;;;1999.90;999.90;;;29.50;86.90;;;;;;4973354;28;20444;-72
2023/06/26 08:27:08;;;;;;;1999.90;999.90;;;29.60;86.00;;;;;;4973890;28;20431;-71
2023/06/26 08:29:34;;;;;;;1999.90;999.90;;;30.00;85.40;;;;;;4974618;28;20510;-72
2023/06/26 08:32:02;;;;;;;1999.90;999.90;;;30.30;86.10;;;;;;4973896;28;20494;-71
2023/06/26 08:34:30;;;;;;;1999.90;999.90;;;30.80;86.60;;;;;;4973309;28;20436;-71
2023/06/26 08:36:56;;;;;;;1999.90;999.90;;;31.20;80.30;;;;;;4974229;28;20432;-71
2023/06/26 08:39:23;;;;;;;1999.90;999.90;;;31.30;79.40;;;;;;4974572;28;20424;-71
2023/06/26 08:41:50;;;;;;;1999.90;999.90;;;31.50;79.40;;;;;;4965227;28;20424;-71
2023/06/26 08:44:16;;;;;;;1999.90;999.90;;;31.20;78.90;;;;;;4975295;28;20423;-71
2023/06/26 08:46:44;;;;;;;1999.90;999.90;;;31.40;79.00;;;;;;4974997;28;20420;-72
2023/06/26 08:49:15;;;;;;;1999.90;999.90;;;31.10;78.50;;;;;;4973868;28;20440;-72
2023/06/26 08:51:51;;;;;;;1999.90;999.90;;;31.10;80.10;;;;;;4974051;28;20831;-70
2023/06/26 08:54:22;;;;;;;1999.90;999.90;;;31.30;79.70;;;;;;4974229;28;20455;-68
2023/06/26 08:56:50;;;;;;;1999.90;999.90;;;31.50;79.60;;;;;;4973364;28;20479;-70
2023/06/26 08:59:17;;;;;;;1999.90;999.90;;;31.70;79.10;;;;;;4979243;28;20431;-71
2023/06/26 09:01:44;;;;;;;1999.90;999.90;;;31.90;78.30;;;;;;4972306;28;20420;-69
2023/06/26 09:04:11;;;;;;;1999.90;999.90;;;31.70;79.50;;;;;;4973581;28;20428;-70
2023/06/26 09:06:39;;;;;;;1999.90;999.90;;;31.80;80.20;;;;;;4969902;28;20436;-71
2023/06/26 09:09:07;;;;;;;1999.90;999.90;;;31.90;77.60;;;;;;4973246;28;20436;-71
2023/06/26 09:11:34;;;;;;;1999.90;999.90;;;31.90;79.90;;;;;;4972289;28;20419;-71
2023/06/26 09:14:01;;;;;;;1999.90;999.90;;;32.20;80.50;;;;;;4973180;28;20478;-70
2023/06/26 09:16:28;;;;;;;1999.90;999.90;;;32.20;79.80;;;;;;4973705;28;20420;-72
2023/06/26 09:18:54;;;;;;;1999.90;999.90;;;32.30;80.10;;;;;;4973839;28;20420;-71
2023/06/26 09:21:24;;;;;;;1999.90;999.90;;;32.60;78.20;;;;;;4972498;28;20495;-70
2023/06/26 09:23:51;;;;;;;1999.90;999.90;;;32.80;78.00;;;;;;4973167;28;20424;-70
2023/06/26 09:26:19;;;;;;;1999.90;999.90;;;32.90;77.80;;;;;;4972532;28;20440;-70
2023/06/26 09:28:45;;;;;;;1999.90;999.90;;;32.60;78.60;;;;;;4973376;28;20428;-71
2023/06/26 09:31:13;;;;;;;1999.90;999.90;;;32.40;76.60;;;;;;4972654;28;20533;-72
2023/06/26 09:33:42;;;;;;;1999.90;999.90;;;32.70;78.60;;;;;;4973028;28;20424;-71
2023/06/26 09:36:19;;;;;;;1999.90;999.90;;;32.70;76.50;;;;;;4973902;28;20420;-72
2023/06/26 09:38:45;;;;;;;1999.90;999.90;;;32.60;76.20;;;;;;4973068;28;20428;-69
2023/06/26 09:41:12;;;;;;;1999.90;999.90;;;32.60;77.20;;;;;;4972043;28;20489;-71
2023/06/26 09:43:48;;;;;;;1999.90;999.90;;;32.90;77.40;;;;;;4972475;28;20771;-73
2023/06/26 09:46:16;;;;;;;1999.90;999.90;;;32.60;76.80;;;;;;4972938;28;20433;-72
2023/06/26 09:48:43;;;;;;;1999.90;999.90;;;32.70;77.00;;;;;;4972913;28;20416;-73
2023/06/26 09:51:11;;;;;;;1999.90;999.90;;;32.40;77.50;;;;;;4969793;28;20471;-72
2023/06/26 09:53:37;;;;;;;1999.90;999.90;;;32.70;76.00;;;;;;4970701;28;20440;-73
2023/06/26 09:56:07;;;;;;;1999.90;999.90;;;32.10;74.70;;;;;;4970019;28;20449;-73
2023/06/26 09:58:34;;;;;;;1999.90;999.90;;;31.70;74.20;;;;;;4971622;28;20515;-74
2023/06/26 10:01:03;;;;;;;1999.90;999.90;;;31.80;77.00;;;;;;4971155;28;20506;-72
2023/06/26 10:03:29;;;;;;;1999.90;999.90;;;32.30;75.60;;;;;;4969695;28;20490;-71
2023/06/26 10:05:56;;;;;;;1999.90;999.90;;;32.60;72.80;;;;;;4971249;28;20989;-73
2023/06/26 10:08:23;;;;;;;1999.90;999.90;;;32.80;72.20;;;;;;4971386;28;20448;-71
2023/06/26 10:10:50;;;;;;;1999.90;999.90;;;32.60;72.60;;;;;;4969458;28;20443;-72
2023/06/26 10:13:23;;;;;;;1999.90;999.90;;;32.90;74.00;;;;;;4967652;28;20648;-72
2023/06/26 10:15:51;;;;;;;1999.90;999.90;;;32.70;71.60;;;;;;4971910;28;20444;-71
2023/06/26 10:18:22;;;;;;;1999.90;999.90;;;32.80;73.60;;;;;;4974886;28;20436;-71
2023/06/26 10:20:51;;;;;;;1999.90;999.90;;;33.20;74.70;;;;;;4974690;28;20440;-70
2023/06/26 10:23:21;;;;;;;1999.90;999.90;;;33.60;75.20;;;;;;4976068;28;20432;-71
2023/06/26 10:25:52;;;;;;;1999.90;999.90;;;33.60;75.10;;;;;;4969132;28;20431;-72
2023/06/26 10:28:22;;;;;;;1999.90;999.90;;;33.60;73.10;;;;;;4968162;28;22346;-71
2023/06/26 10:30:51;;;;;;;1999.90;999.90;;;33.50;71.80;;;;;;4969417;28;20436;-70
2023/06/26 10:33:20;;;;;;;1999.90;999.90;;;33.40;73.30;;;;;;4970054;28;20731;-72
2023/06/26 10:35:47;;;;;;;1999.90;999.90;;;33.50;73.30;;;;;;4967984;28;20494;-71
2023/06/26 10:38:14;;;;;;;1999.90;999.90;;;33.50;73.70;;;;;;4963245;28;20435;-73
2023/06/26 10:40:42;;;;;;;1999.90;999.90;;;33.70;74.20;;;;;;4968364;28;20551;-72
2023/06/26 10:43:11;;;;;;;1999.90;999.90;;;33.80;74.80;;;;;;4971434;28;20447;-72
2023/06/26 10:45:38;;;;;;;1999.90;999.90;;;33.80;75.00;;;;;;4970880;28;20443;-72
2023/06/26 10:48:05;;;;;;;1999.90;999.90;;;34.00;74.60;;;;;;4972004;28;20420;-71
2023/06/26 10:50:35;;;;;;;1999.90;999.90;;;34.00;77.10;;;;;;4972005;28;20428;-71
2023/06/26 10:53:09;;;;;;;1999.90;999.90;;;33.60;82.00;;;;;;4971012;28;20438;-72
2023/06/26 10:55:36;;;;;;;1999.90;999.90;;;33.20;85.50;;;;;;4971848;28;20416;-72
2023/06/26 10:58:03;;;;;;;1999.90;999.90;;;32.10;87.20;;;;;;4971752;28;20479;-73
2023/06/26 11:00:30;;;;;;;1999.90;999.90;;;31.30;90.00;;;;;;4970812;28;20439;-72
2023/06/26 11:02:57;;;;;;;1999.90;999.90;;;30.70;91.10;;;;;;4963082;28;20427;-70
2023/06/26 11:05:27;;;;;;;1999.90;999.90;;;30.30;92.50;;;;;;4971836;28;20483;-73
2023/06/26 11:08:06;;;;;;;1999.90;999.90;;;30.10;94.00;;;;;;4971257;28;20498;-71
2023/06/26 11:10:55;;;;;;;1999.90;999.90;;;29.90;94.50;;;;;;4968679;28;20927;-71
2023/06/26 11:13:22;;;;;;;1999.90;999.90;;;29.60;95.30;;;;;;4964808;28;20450;-72
2023/06/26 11:15:51;;;;;;;1999.90;999.90;;;29.40;96.10;;;;;;4964822;28;20442;-70
2023/06/26 11:18:18;;;;;;;1999.90;999.90;;;29.20;97.10;;;;;;4966467;28;20506;-73
2023/06/26 11:20:45;;;;;;;1999.90;999.90;;;29.30;97.70;;;;;;4968956;28;20444;-72
2023/06/26 11:23:13;;;;;;;1999.90;999.90;;;29.50;98.00;;;;;;4967243;28;20935;-70
2023/06/26 11:25:40;;;;;;;1999.90;999.90;;;29.60;97.40;;;;;;4965851;28;20444;-72
2023/06/26 11:28:10;;;;;;;1999.90;999.90;;;30.00;97.70;;;;;;4962854;28;20936;-72
2023/06/26 11:30:39;;;;;;;1999.90;999.90;;;30.20;96.80;;;;;;4965254;28;20435;-71
2023/06/26 11:33:06;;;;;;;1999.90;999.90;;;30.00;96.60;;;;;;4968317;28;20440;-70
2023/06/26 11:35:33;;;;;;;1999.90;999.90;;;29.70;98.10;;;;;;4967312;28;20493;-72
2023/06/26 11:38:04;;;;;;;1999.90;999.90;;;29.40;98.20;;;;;;4962841;28;20447;-70
2023/06/26 11:40:33;;;;;;;1999.90;999.90;;;29.10;99.00;;;;;;4969468;28;20475;-71
2023/06/26 11:43:00;;;;;;;1999.90;999.90;;;28.80;99.60;;;;;;4967251;28;20498;-71
2023/06/26 11:45:29;;;;;;;1999.90;999.90;;;28.70;99.90;;;;;;4969291;28;22434;-70
2023/06/26 11:47:56;;;;;;;1999.90;999.90;;;28.50;99.90;;;;;;4968760;28;20503;-69
2023/06/26 11:50:24;;;;;;;1999.90;999.90;;;28.80;99.90;;;;;;4970408;28;20436;-71
2023/06/26 11:52:54;;;;;;;1999.90;999.90;;;28.90;99.90;;;;;;4968366;28;20443;-70
2023/06/26 11:55:21;;;;;;;1999.90;999.90;;;28.50;99.90;;;;;;4969211;28;20458;-72
2023/06/26 11:57:51;;;;;;;1999.90;999.90;;;28.00;99.90;;;;;;4968122;28;20444;-70
2023/06/26 12:00:18;;;;;;;1999.90;999.90;;;27.80;99.90;;;;;;4967579;28;20436;-71